sensor_id;sensor_type;location;lat;lon;timestamp;P1;durP1;ratioP1;P2;durP2;ratioP2
5217;SDS011;26539;51.064;6.346;2022-08-18T00:01:19;58.13;;;48.50;;
5217;SDS011;26539;51.064;6.346;2022-08-18T00:03:47;56.53;;;50.50;;
5217;SDS011;26539;51.064;6.346;2022-08-18T00:06:13;57.63;;;47.67;;
5217;SDS011;26539;51.064;6.346;2022-08-18T00:08:39;56.53;;;49.23;;
5217;SDS011;26539;51.064;6.346;2022-08-18T00:11:04;59.37;;;47.43;;
5217;SDS011;26539;51.064;6.346;2022-08-18T00:13:31;59.27;;;48.97;;
5217;SDS011;26539;51.064;6.346;2022-08-18T00:15:57;60.63;;;49.80;;
5217;SDS011;26539;51.064;6.346;2022-08-18T00:18:23;55.00;;;47.00;;
5217;SDS011;26539;51.064;6.346;2022-08-18T00:20:48;62.83;;;54.53;;
5217;SDS011;26539;51.064;6.346;2022-08-18T00:23:14;57.90;;;50.60;;
5217;SDS011;26539;51.064;6.346;2022-08-18T00:25:39;56.40;;;50.03;;
5217;SDS011;26539;51.064;6.346;2022-08-18T00:28:05;57.70;;;49.57;;
5217;SDS011;26539;51.064;6.346;2022-08-18T00:30:31;52.90;;;47.10;;
5217;SDS011;26539;51.064;6.346;2022-08-18T00:32:57;55.37;;;47.23;;
5217;SDS011;26539;51.064;6.346;2022-08-18T00:35:26;54.90;;;47.73;;
5217;SDS011;26539;51.064;6.346;2022-08-18T00:37:55;57.17;;;49.37;;
5217;SDS011;26539;51.064;6.346;2022-08-18T00:40:24;56.70;;;48.87;;
5217;SDS011;26539;51.064;6.346;2022-08-18T00:42:56;70.13;;;51.47;;
5217;SDS011;26539;51.064;6.346;2022-08-18T00:45:27;63.10;;;51.63;;
5217;SDS011;26539;51.064;6.346;2022-08-18T00:47:57;69.40;;;55.33;;
5217;SDS011;26539;51.064;6.346;2022-08-18T00:50:25;63.10;;;53.67;;
5217;SDS011;26539;51.064;6.346;2022-08-18T00:53:00;60.57;;;51.53;;
5217;SDS011;26539;51.064;6.346;2022-08-18T00:55:29;63.73;;;50.70;;
5217;SDS011;26539;51.064;6.346;2022-08-18T00:58:08;65.17;;;52.40;;
5217;SDS011;26539;51.064;6.346;2022-08-18T01:00:39;69.77;;;56.30;;
5217;SDS011;26539;51.064;6.346;2022-08-18T01:03:06;75.27;;;55.50;;
5217;SDS011;26539;51.064;6.346;2022-08-18T01:05:44;69.70;;;54.17;;
5217;SDS011;26539;51.064;6.346;2022-08-18T01:08:15;72.63;;;55.90;;
5217;SDS011;26539;51.064;6.346;2022-08-18T01:10:41;76.80;;;56.23;;
5217;SDS011;26539;51.064;6.346;2022-08-18T01:13:07;80.37;;;57.87;;
5217;SDS011;26539;51.064;6.346;2022-08-18T01:15:34;79.60;;;56.20;;
5217;SDS011;26539;51.064;6.346;2022-08-18T01:18:02;75.83;;;56.10;;
5217;SDS011;26539;51.064;6.346;2022-08-18T01:21:02;73.87;;;55.73;;
5217;SDS011;26539;51.064;6.346;2022-08-18T01:23:53;72.43;;;56.40;;
5217;SDS011;26539;51.064;6.346;2022-08-18T01:26:20;71.17;;;54.30;;
5217;SDS011;26539;51.064;6.346;2022-08-18T01:28:48;65.17;;;53.77;;
5217;SDS011;26539;51.064;6.346;2022-08-18T01:31:31;63.87;;;51.77;;
5217;SDS011;26539;51.064;6.346;2022-08-18T01:34:04;63.77;;;52.60;;
5217;SDS011;26539;51.064;6.346;2022-08-18T01:36:34;65.03;;;51.10;;
5217;SDS011;26539;51.064;6.346;2022-08-18T01:39:03;63.37;;;51.50;;
5217;SDS011;26539;51.064;6.346;2022-08-18T01:41:30;64.97;;;52.13;;
5217;SDS011;26539;51.064;6.346;2022-08-18T01:43:59;66.47;;;52.37;;
5217;SDS011;26539;51.064;6.346;2022-08-18T01:46:26;63.50;;;50.90;;
5217;SDS011;26539;51.064;6.346;2022-08-18T01:48:53;66.20;;;51.23;;
5217;SDS011;26539;51.064;6.346;2022-08-18T01:51:19;67.03;;;52.40;;
5217;SDS011;26539;51.064;6.346;2022-08-18T01:53:46;70.83;;;54.40;;
5217;SDS011;26539;51.064;6.346;2022-08-18T01:56:12;74.23;;;55.27;;
5217;SDS011;26539;51.064;6.346;2022-08-18T01:58:42;82.83;;;58.57;;
5217;SDS011;26539;51.064;6.346;2022-08-18T02:01:08;78.77;;;57.00;;
5217;SDS011;26539;51.064;6.346;2022-08-18T02:03:38;97.27;;;61.70;;
5217;SDS011;26539;51.064;6.346;2022-08-18T02:06:11;88.90;;;59.90;;
5217;SDS011;26539;51.064;6.346;2022-08-18T02:08:38;91.10;;;63.37;;
5217;SDS011;26539;51.064;6.346;2022-08-18T02:11:04;94.97;;;61.97;;
5217;SDS011;26539;51.064;6.346;2022-08-18T02:13:31;97.90;;;62.77;;
5217;SDS011;26539;51.064;6.346;2022-08-18T02:15:58;91.30;;;61.87;;
5217;SDS011;26539;51.064;6.346;2022-08-18T02:18:25;83.70;;;57.80;;
5217;SDS011;26539;51.064;6.346;2022-08-18T02:20:53;81.57;;;56.93;;
5217;SDS011;26539;51.064;6.346;2022-08-18T02:23:19;80.20;;;57.73;;
5217;SDS011;26539;51.064;6.346;2022-08-18T02:25:44;75.20;;;56.37;;
5217;SDS011;26539;51.064;6.346;2022-08-18T02:28:10;72.93;;;54.27;;
5217;SDS011;26539;51.064;6.346;2022-08-18T02:30:36;78.13;;;56.47;;
5217;SDS011;26539;51.064;6.346;2022-08-18T02:33:03;74.37;;;55.60;;
5217;SDS011;26539;51.064;6.346;2022-08-18T02:35:30;81.97;;;57.60;;
5217;SDS011;26539;51.064;6.346;2022-08-18T02:37:59;85.37;;;55.90;;
5217;SDS011;26539;51.064;6.346;2022-08-18T02:40:25;81.50;;;56.10;;
5217;SDS011;26539;51.064;6.346;2022-08-18T02:42:52;90.43;;;60.23;;
5217;SDS011;26539;51.064;6.346;2022-08-18T02:45:18;96.53;;;61.00;;
5217;SDS011;26539;51.064;6.346;2022-08-18T02:47:44;90.67;;;59.60;;
5217;SDS011;26539;51.064;6.346;2022-08-18T02:50:19;101.20;;;63.10;;
5217;SDS011;26539;51.064;6.346;2022-08-18T02:52:45;108.77;;;62.90;;
5217;SDS011;26539;51.064;6.346;2022-08-18T02:55:11;99.40;;;63.77;;
5217;SDS011;26539;51.064;6.346;2022-08-18T02:57:41;96.20;;;62.80;;
5217;SDS011;26539;51.064;6.346;2022-08-18T03:00:08;105.60;;;63.63;;
5217;SDS011;26539;51.064;6.346;2022-08-18T03:02:36;100.87;;;61.40;;
5217;SDS011;26539;51.064;6.346;2022-08-18T03:05:02;103.00;;;63.27;;
5217;SDS011;26539;51.064;6.346;2022-08-18T03:07:29;101.83;;;64.30;;
5217;SDS011;26539;51.064;6.346;2022-08-18T03:09:54;98.57;;;62.60;;
5217;SDS011;26539;51.064;6.346;2022-08-18T03:12:20;95.70;;;57.73;;
5217;SDS011;26539;51.064;6.346;2022-08-18T03:14:45;86.90;;;55.67;;
5217;SDS011;26539;51.064;6.346;2022-08-18T03:17:11;80.53;;;56.10;;
5217;SDS011;26539;51.064;6.346;2022-08-18T03:19:38;88.37;;;58.20;;
5217;SDS011;26539;51.064;6.346;2022-08-18T03:22:06;94.17;;;59.00;;
5217;SDS011;26539;51.064;6.346;2022-08-18T03:24:32;95.27;;;59.57;;
5217;SDS011;26539;51.064;6.346;2022-08-18T03:26:59;87.23;;;57.57;;
5217;SDS011;26539;51.064;6.346;2022-08-18T03:29:28;94.43;;;59.70;;
5217;SDS011;26539;51.064;6.346;2022-08-18T03:31:53;88.67;;;57.07;;
5217;SDS011;26539;51.064;6.346;2022-08-18T03:34:19;86.27;;;55.47;;
5217;SDS011;26539;51.064;6.346;2022-08-18T03:36:45;94.43;;;58.73;;
5217;SDS011;26539;51.064;6.346;2022-08-18T03:39:13;96.77;;;57.03;;
5217;SDS011;26539;51.064;6.346;2022-08-18T03:41:39;92.90;;;57.20;;
5217;SDS011;26539;51.064;6.346;2022-08-18T03:44:10;96.30;;;59.37;;
5217;SDS011;26539;51.064;6.346;2022-08-18T03:46:38;95.10;;;58.50;;
5217;SDS011;26539;51.064;6.346;2022-08-18T03:49:06;91.30;;;55.40;;
5217;SDS011;26539;51.064;6.346;2022-08-18T03:51:31;90.33;;;54.63;;
5217;SDS011;26539;51.064;6.346;2022-08-18T03:53:58;86.47;;;53.63;;
5217;SDS011;26539;51.064;6.346;2022-08-18T03:56:29;85.47;;;54.43;;
5217;SDS011;26539;51.064;6.346;2022-08-18T03:58:59;86.10;;;53.30;;
5217;SDS011;26539;51.064;6.346;2022-08-18T04:01:28;86.57;;;52.63;;
5217;SDS011;26539;51.064;6.346;2022-08-18T04:03:58;80.17;;;50.73;;
5217;SDS011;26539;51.064;6.346;2022-08-18T04:06:27;79.07;;;47.60;;
5217;SDS011;26539;51.064;6.346;2022-08-18T04:08:58;69.50;;;46.07;;
5217;SDS011;26539;51.064;6.346;2022-08-18T04:11:25;76.70;;;49.60;;
5217;SDS011;26539;51.064;6.346;2022-08-18T04:13:55;72.43;;;48.80;;
5217;SDS011;26539;51.064;6.346;2022-08-18T04:16:22;75.37;;;48.00;;
5217;SDS011;26539;51.064;6.346;2022-08-18T04:18:49;76.40;;;49.17;;
5217;SDS011;26539;51.064;6.346;2022-08-18T04:21:14;79.10;;;50.00;;
5217;SDS011;26539;51.064;6.346;2022-08-18T04:23:40;72.70;;;48.60;;
5217;SDS011;26539;51.064;6.346;2022-08-18T04:26:06;75.43;;;48.53;;
5217;SDS011;26539;51.064;6.346;2022-08-18T04:28:36;81.13;;;50.73;;
5217;SDS011;26539;51.064;6.346;2022-08-18T04:31:06;78.03;;;49.63;;
5217;SDS011;26539;51.064;6.346;2022-08-18T04:33:33;76.47;;;50.67;;
5217;SDS011;26539;51.064;6.346;2022-08-18T04:36:05;81.20;;;49.37;;
5217;SDS011;26539;51.064;6.346;2022-08-18T04:38:41;76.77;;;49.40;;
5217;SDS011;26539;51.064;6.346;2022-08-18T04:41:11;76.67;;;49.07;;
5217;SDS011;26539;51.064;6.346;2022-08-18T04:43:38;79.53;;;48.43;;
5217;SDS011;26539;51.064;6.346;2022-08-18T04:46:04;73.70;;;47.13;;
5217;SDS011;26539;51.064;6.346;2022-08-18T04:48:31;70.43;;;45.00;;
5217;SDS011;26539;51.064;6.346;2022-08-18T04:53:37;70.47;;;44.97;;
5217;SDS011;26539;51.064;6.346;2022-08-18T04:58:52;73.43;;;45.67;;
5217;SDS011;26539;51.064;6.346;2022-08-18T05:01:19;66.17;;;45.67;;
5217;SDS011;26539;51.064;6.346;2022-08-18T05:03:47;72.97;;;46.40;;
5217;SDS011;26539;51.064;6.346;2022-08-18T05:06:14;68.70;;;43.67;;
5217;SDS011;26539;51.064;6.346;2022-08-18T05:08:39;74.60;;;47.53;;
5217;SDS011;26539;51.064;6.346;2022-08-18T05:11:05;68.43;;;46.30;;
5217;SDS011;26539;51.064;6.346;2022-08-18T05:13:31;67.40;;;44.90;;
5217;SDS011;26539;51.064;6.346;2022-08-18T05:15:57;66.97;;;47.00;;
5217;SDS011;26539;51.064;6.346;2022-08-18T05:18:31;64.23;;;44.83;;
5217;SDS011;26539;51.064;6.346;2022-08-18T05:20:57;69.97;;;46.80;;
5217;SDS011;26539;51.064;6.346;2022-08-18T05:23:24;62.27;;;43.10;;
5217;SDS011;26539;51.064;6.346;2022-08-18T05:25:55;66.50;;;44.47;;
5217;SDS011;26539;51.064;6.346;2022-08-18T05:28:22;65.60;;;45.40;;
5217;SDS011;26539;51.064;6.346;2022-08-18T05:30:48;66.13;;;46.20;;
5217;SDS011;26539;51.064;6.346;2022-08-18T05:33:13;66.63;;;43.10;;
5217;SDS011;26539;51.064;6.346;2022-08-18T05:35:43;62.67;;;42.60;;
5217;SDS011;26539;51.064;6.346;2022-08-18T05:38:19;64.00;;;44.53;;
5217;SDS011;26539;51.064;6.346;2022-08-18T05:41:25;64.40;;;43.40;;
5217;SDS011;26539;51.064;6.346;2022-08-18T05:43:53;60.97;;;43.27;;
5217;SDS011;26539;51.064;6.346;2022-08-18T05:46:22;60.87;;;42.00;;
5217;SDS011;26539;51.064;6.346;2022-08-18T05:48:56;61.87;;;42.60;;
5217;SDS011;26539;51.064;6.346;2022-08-18T05:51:25;67.33;;;43.47;;
5217;SDS011;26539;51.064;6.346;2022-08-18T05:53:57;63.97;;;42.33;;
5217;SDS011;26539;51.064;6.346;2022-08-18T05:56:41;60.00;;;43.47;;
5217;SDS011;26539;51.064;6.346;2022-08-18T05:59:13;58.00;;;41.50;;
5217;SDS011;26539;51.064;6.346;2022-08-18T06:01:55;56.60;;;39.47;;
5217;SDS011;26539;51.064;6.346;2022-08-18T06:04:39;56.07;;;39.03;;
5217;SDS011;26539;51.064;6.346;2022-08-18T06:07:11;56.90;;;38.13;;
5217;SDS011;26539;51.064;6.346;2022-08-18T06:09:46;57.13;;;40.17;;
5217;SDS011;26539;51.064;6.346;2022-08-18T06:12:30;53.70;;;40.47;;
5217;SDS011;26539;51.064;6.346;2022-08-18T06:21:27;56.93;;;40.00;;
5217;SDS011;26539;51.064;6.346;2022-08-18T06:32:25;60.27;;;40.90;;
5217;SDS011;26539;51.064;6.346;2022-08-18T06:38:14;59.90;;;40.07;;
5217;SDS011;26539;51.064;6.346;2022-08-18T06:41:03;60.17;;;41.03;;
5217;SDS011;26539;51.064;6.346;2022-08-18T06:43:48;54.00;;;41.13;;
5217;SDS011;26539;51.064;6.346;2022-08-18T06:49:31;57.50;;;39.13;;
5217;SDS011;26539;51.064;6.346;2022-08-18T06:54:57;57.67;;;40.83;;
5217;SDS011;26539;51.064;6.346;2022-08-18T06:57:36;53.60;;;39.17;;
5217;SDS011;26539;51.064;6.346;2022-08-18T07:00:05;54.97;;;40.43;;
5217;SDS011;26539;51.064;6.346;2022-08-18T07:02:40;56.07;;;41.60;;
5217;SDS011;26539;51.064;6.346;2022-08-18T07:07:46;57.57;;;41.50;;
5217;SDS011;26539;51.064;6.346;2022-08-18T07:10:36;57.17;;;40.20;;
5217;SDS011;26539;51.064;6.346;2022-08-18T07:13:23;58.10;;;38.77;;
5217;SDS011;26539;51.064;6.346;2022-08-18T07:15:51;55.13;;;39.63;;
5217;SDS011;26539;51.064;6.346;2022-08-18T07:18:37;55.33;;;40.70;;
5217;SDS011;26539;51.064;6.346;2022-08-18T07:21:02;51.87;;;39.03;;
5217;SDS011;26539;51.064;6.346;2022-08-18T07:23:36;51.00;;;37.90;;
5217;SDS011;26539;51.064;6.346;2022-08-18T07:26:11;56.37;;;39.27;;
5217;SDS011;26539;51.064;6.346;2022-08-18T07:28:43;51.10;;;39.53;;
5217;SDS011;26539;51.064;6.346;2022-08-18T07:34:02;59.00;;;41.87;;
5217;SDS011;26539;51.064;6.346;2022-08-18T07:36:51;60.23;;;41.07;;
5217;SDS011;26539;51.064;6.346;2022-08-18T07:39:53;54.57;;;39.50;;
5217;SDS011;26539;51.064;6.346;2022-08-18T07:43:09;56.70;;;40.70;;
5217;SDS011;26539;51.064;6.346;2022-08-18T07:47:52;55.50;;;40.30;;
5217;SDS011;26539;51.064;6.346;2022-08-18T07:50:23;53.87;;;39.77;;
5217;SDS011;26539;51.064;6.346;2022-08-18T07:55:52;55.40;;;39.87;;
5217;SDS011;26539;51.064;6.346;2022-08-18T07:58:26;55.73;;;38.67;;
5217;SDS011;26539;51.064;6.346;2022-08-18T08:01:02;48.07;;;36.53;;
5217;SDS011;26539;51.064;6.346;2022-08-18T08:06:22;47.80;;;36.10;;
5217;SDS011;26539;51.064;6.346;2022-08-18T08:11:38;40.37;;;33.90;;
5217;SDS011;26539;51.064;6.346;2022-08-18T08:19:54;31.17;;;26.80;;
5217;SDS011;26539;51.064;6.346;2022-08-18T08:25:21;28.50;;;25.03;;
5217;SDS011;26539;51.064;6.346;2022-08-18T08:27:59;30.23;;;26.17;;
5217;SDS011;26539;51.064;6.346;2022-08-18T08:30:54;27.70;;;24.80;;
5217;SDS011;26539;51.064;6.346;2022-08-18T08:33:25;29.47;;;26.27;;
5217;SDS011;26539;51.064;6.346;2022-08-18T08:36:00;29.60;;;24.13;;
5217;SDS011;26539;51.064;6.346;2022-08-18T08:38:40;30.83;;;25.27;;
5217;SDS011;26539;51.064;6.346;2022-08-18T08:47:03;25.00;;;22.37;;
5217;SDS011;26539;51.064;6.346;2022-08-18T08:49:43;27.37;;;22.77;;
5217;SDS011;26539;51.064;6.346;2022-08-18T08:52:23;24.17;;;21.87;;
5217;SDS011;26539;51.064;6.346;2022-08-18T08:54:58;26.40;;;23.70;;
5217;SDS011;26539;51.064;6.346;2022-08-18T08:57:30;26.63;;;23.83;;
5217;SDS011;26539;51.064;6.346;2022-08-18T09:00:05;25.73;;;22.13;;
5217;SDS011;26539;51.064;6.346;2022-08-18T09:05:59;22.60;;;19.80;;
5217;SDS011;26539;51.064;6.346;2022-08-18T09:08:44;20.00;;;18.03;;
5217;SDS011;26539;51.064;6.346;2022-08-18T09:17:19;16.23;;;14.63;;
5217;SDS011;26539;51.064;6.346;2022-08-18T09:31:21;11.53;;;10.27;;
5217;SDS011;26539;51.064;6.346;2022-08-18T09:39:42;9.77;;;8.80;;
5217;SDS011;26539;51.064;6.346;2022-08-18T09:50:50;8.57;;;7.63;;
5217;SDS011;26539;51.064;6.346;2022-08-18T09:56:01;9.27;;;8.57;;
5217;SDS011;26539;51.064;6.346;2022-08-18T10:06:49;10.23;;;9.20;;
5217;SDS011;26539;51.064;6.346;2022-08-18T10:14:24;10.13;;;9.13;;
5217;SDS011;26539;51.064;6.346;2022-08-18T10:20:13;11.67;;;10.57;;
5217;SDS011;26539;51.064;6.346;2022-08-18T10:23:03;9.70;;;8.90;;
5217;SDS011;26539;51.064;6.346;2022-08-18T10:25:39;9.60;;;8.77;;
5217;SDS011;26539;51.064;6.346;2022-08-18T10:28:10;10.23;;;8.40;;
5217;SDS011;26539;51.064;6.346;2022-08-18T10:30:59;8.50;;;7.57;;
5217;SDS011;26539;51.064;6.346;2022-08-18T10:39:23;8.33;;;7.63;;
5217;SDS011;26539;51.064;6.346;2022-08-18T10:44:44;8.60;;;7.80;;
5217;SDS011;26539;51.064;6.346;2022-08-18T10:47:20;8.30;;;7.67;;
5217;SDS011;26539;51.064;6.346;2022-08-18T10:49:48;8.60;;;7.80;;
5217;SDS011;26539;51.064;6.346;2022-08-18T10:57:42;9.33;;;8.17;;
5217;SDS011;26539;51.064;6.346;2022-08-18T11:00:18;10.87;;;9.33;;
5217;SDS011;26539;51.064;6.346;2022-08-18T11:05:24;9.30;;;8.30;;
5217;SDS011;26539;51.064;6.346;2022-08-18T11:07:58;10.33;;;9.20;;
5217;SDS011;26539;51.064;6.346;2022-08-18T11:13:10;7.40;;;6.77;;
5217;SDS011;26539;51.064;6.346;2022-08-18T11:18:46;9.20;;;8.30;;
5217;SDS011;26539;51.064;6.346;2022-08-18T11:26:57;8.30;;;7.50;;
5217;SDS011;26539;51.064;6.346;2022-08-18T11:32:01;8.57;;;7.70;;
5217;SDS011;26539;51.064;6.346;2022-08-18T11:34:43;8.80;;;7.23;;
5217;SDS011;26539;51.064;6.346;2022-08-18T11:37:19;7.63;;;6.93;;
5217;SDS011;26539;51.064;6.346;2022-08-18T11:40:31;7.67;;;6.97;;
5217;SDS011;26539;51.064;6.346;2022-08-18T11:45:50;9.30;;;8.50;;
5217;SDS011;26539;51.064;6.346;2022-08-18T11:51:00;7.97;;;7.20;;
5217;SDS011;26539;51.064;6.346;2022-08-18T11:58:55;8.90;;;8.10;;
5217;SDS011;26539;51.064;6.346;2022-08-18T12:03:58;7.57;;;6.87;;
5217;SDS011;26539;51.064;6.346;2022-08-18T12:06:35;9.30;;;6.63;;
5217;SDS011;26539;51.064;6.346;2022-08-18T12:09:03;9.97;;;7.40;;
5217;SDS011;26539;51.064;6.346;2022-08-18T12:11:33;8.70;;;7.20;;
5217;SDS011;26539;51.064;6.346;2022-08-18T12:14:14;7.73;;;6.80;;
5217;SDS011;26539;51.064;6.346;2022-08-18T12:16:43;8.90;;;7.17;;
5217;SDS011;26539;51.064;6.346;2022-08-18T12:19:10;6.10;;;5.43;;
5217;SDS011;26539;51.064;6.346;2022-08-18T12:21:41;7.17;;;6.57;;
5217;SDS011;26539;51.064;6.346;2022-08-18T12:24:21;6.90;;;6.30;;
5217;SDS011;26539;51.064;6.346;2022-08-18T12:26:49;10.03;;;7.20;;
5217;SDS011;26539;51.064;6.346;2022-08-18T12:29:17;9.53;;;5.70;;
5217;SDS011;26539;51.064;6.346;2022-08-18T12:31:43;8.00;;;6.37;;
5217;SDS011;26539;51.064;6.346;2022-08-18T12:34:10;9.17;;;6.63;;
5217;SDS011;26539;51.064;6.346;2022-08-18T12:36:35;6.50;;;5.93;;
5217;SDS011;26539;51.064;6.346;2022-08-18T12:39:04;7.53;;;6.70;;
5217;SDS011;26539;51.064;6.346;2022-08-18T12:41:30;8.60;;;7.27;;
5217;SDS011;26539;51.064;6.346;2022-08-18T12:44:04;8.70;;;7.50;;
5217;SDS011;26539;51.064;6.346;2022-08-18T12:46:33;7.57;;;6.43;;
5217;SDS011;26539;51.064;6.346;2022-08-18T12:49:00;7.13;;;6.43;;
5217;SDS011;26539;51.064;6.346;2022-08-18T12:51:29;9.63;;;7.33;;
5217;SDS011;26539;51.064;6.346;2022-08-18T12:53:57;9.60;;;6.20;;
5217;SDS011;26539;51.064;6.346;2022-08-18T12:56:30;7.73;;;5.83;;
5217;SDS011;26539;51.064;6.346;2022-08-18T12:59:05;7.17;;;6.47;;
5217;SDS011;26539;51.064;6.346;2022-08-18T13:01:50;8.27;;;6.00;;
5217;SDS011;26539;51.064;6.346;2022-08-18T13:04:21;7.47;;;6.60;;
5217;SDS011;26539;51.064;6.346;2022-08-18T13:06:51;8.37;;;7.17;;
5217;SDS011;26539;51.064;6.346;2022-08-18T13:09:22;7.00;;;6.30;;
5217;SDS011;26539;51.064;6.346;2022-08-18T13:11:48;8.67;;;7.33;;
5217;SDS011;26539;51.064;6.346;2022-08-18T13:14:14;6.00;;;5.50;;
5217;SDS011;26539;51.064;6.346;2022-08-18T13:16:41;6.70;;;6.00;;
5217;SDS011;26539;51.064;6.346;2022-08-18T13:19:08;6.20;;;5.70;;
5217;SDS011;26539;51.064;6.346;2022-08-18T13:21:35;10.70;;;5.77;;
5217;SDS011;26539;51.064;6.346;2022-08-18T13:24:01;6.37;;;5.70;;
5217;SDS011;26539;51.064;6.346;2022-08-18T13:26:28;5.97;;;5.53;;
5217;SDS011;26539;51.064;6.346;2022-08-18T13:28:57;6.37;;;5.77;;
5217;SDS011;26539;51.064;6.346;2022-08-18T13:34:08;7.93;;;6.43;;
5217;SDS011;26539;51.064;6.346;2022-08-18T13:36:39;5.60;;;5.10;;
5217;SDS011;26539;51.064;6.346;2022-08-18T13:39:13;6.87;;;6.17;;
5217;SDS011;26539;51.064;6.346;2022-08-18T13:42:02;8.40;;;5.10;;
5217;SDS011;26539;51.064;6.346;2022-08-18T13:44:27;5.73;;;5.20;;
5217;SDS011;26539;51.064;6.346;2022-08-18T13:46:53;5.50;;;4.90;;
5217;SDS011;26539;51.064;6.346;2022-08-18T13:49:20;5.87;;;5.30;;
5217;SDS011;26539;51.064;6.346;2022-08-18T13:51:48;5.20;;;4.80;;
5217;SDS011;26539;51.064;6.346;2022-08-18T13:54:22;5.17;;;4.67;;
5217;SDS011;26539;51.064;6.346;2022-08-18T13:56:57;6.33;;;4.93;;
5217;SDS011;26539;51.064;6.346;2022-08-18T13:59:24;8.87;;;5.00;;
5217;SDS011;26539;51.064;6.346;2022-08-18T14:01:57;6.27;;;4.83;;
5217;SDS011;26539;51.064;6.346;2022-08-18T14:04:29;8.47;;;4.13;;
5217;SDS011;26539;51.064;6.346;2022-08-18T14:06:55;5.93;;;4.23;;
5217;SDS011;26539;51.064;6.346;2022-08-18T14:09:33;6.10;;;5.50;;
5217;SDS011;26539;51.064;6.346;2022-08-18T14:12:00;10.97;;;5.63;;
5217;SDS011;26539;51.064;6.346;2022-08-18T14:14:33;5.60;;;5.00;;
5217;SDS011;26539;51.064;6.346;2022-08-18T14:16:58;4.90;;;4.40;;
5217;SDS011;26539;51.064;6.346;2022-08-18T14:19:24;5.30;;;4.80;;
5217;SDS011;26539;51.064;6.346;2022-08-18T14:22:08;4.63;;;4.23;;
5217;SDS011;26539;51.064;6.346;2022-08-18T14:24:52;7.33;;;5.00;;
5217;SDS011;26539;51.064;6.346;2022-08-18T14:27:39;7.23;;;4.10;;
5217;SDS011;26539;51.064;6.346;2022-08-18T14:30:08;5.73;;;4.77;;
5217;SDS011;26539;51.064;6.346;2022-08-18T14:32:36;5.03;;;4.53;;
5217;SDS011;26539;51.064;6.346;2022-08-18T14:35:03;4.37;;;4.03;;
5217;SDS011;26539;51.064;6.346;2022-08-18T14:37:31;5.13;;;4.63;;
5217;SDS011;26539;51.064;6.346;2022-08-18T14:39:57;4.60;;;4.20;;
5217;SDS011;26539;51.064;6.346;2022-08-18T14:42:26;5.60;;;4.77;;
5217;SDS011;26539;51.064;6.346;2022-08-18T14:44:59;5.33;;;4.87;;
5217;SDS011;26539;51.064;6.346;2022-08-18T14:47:27;16.53;;;5.90;;
5217;SDS011;26539;51.064;6.346;2022-08-18T14:49:58;6.20;;;5.20;;
5217;SDS011;26539;51.064;6.346;2022-08-18T14:52:25;5.13;;;4.60;;
5217;SDS011;26539;51.064;6.346;2022-08-18T14:54:54;6.83;;;5.13;;
5217;SDS011;26539;51.064;6.346;2022-08-18T14:57:20;7.90;;;5.10;;
5217;SDS011;26539;51.064;6.346;2022-08-18T15:00:01;5.27;;;4.77;;
5217;SDS011;26539;51.064;6.346;2022-08-18T15:02:28;5.10;;;4.70;;
5217;SDS011;26539;51.064;6.346;2022-08-18T15:04:54;6.17;;;4.77;;
5217;SDS011;26539;51.064;6.346;2022-08-18T15:07:22;6.70;;;5.60;;
5217;SDS011;26539;51.064;6.346;2022-08-18T15:09:48;5.10;;;4.70;;
5217;SDS011;26539;51.064;6.346;2022-08-18T15:12:14;5.50;;;4.80;;
5217;SDS011;26539;51.064;6.346;2022-08-18T15:14:41;5.87;;;5.30;;
5217;SDS011;26539;51.064;6.346;2022-08-18T15:17:07;5.80;;;5.30;;
5217;SDS011;26539;51.064;6.346;2022-08-18T15:19:39;6.60;;;5.43;;
5217;SDS011;26539;51.064;6.346;2022-08-18T15:22:22;5.07;;;4.50;;
5217;SDS011;26539;51.064;6.346;2022-08-18T15:25:06;6.63;;;5.53;;
5217;SDS011;26539;51.064;6.346;2022-08-18T15:27:52;6.70;;;5.70;;
5217;SDS011;26539;51.064;6.346;2022-08-18T15:30:17;5.90;;;5.27;;
5217;SDS011;26539;51.064;6.346;2022-08-18T15:32:45;5.90;;;4.53;;
5217;SDS011;26539;51.064;6.346;2022-08-18T15:35:12;5.90;;;5.03;;
5217;SDS011;26539;51.064;6.346;2022-08-18T15:37:42;4.20;;;3.80;;
5217;SDS011;26539;51.064;6.346;2022-08-18T15:40:13;7.60;;;4.63;;
5217;SDS011;26539;51.064;6.346;2022-08-18T15:42:42;4.63;;;4.23;;
5217;SDS011;26539;51.064;6.346;2022-08-18T15:45:10;4.90;;;4.40;;
5217;SDS011;26539;51.064;6.346;2022-08-18T15:47:39;4.80;;;4.43;;
5217;SDS011;26539;51.064;6.346;2022-08-18T15:50:06;4.73;;;4.10;;
5217;SDS011;26539;51.064;6.346;2022-08-18T15:52:32;5.10;;;4.10;;
5217;SDS011;26539;51.064;6.346;2022-08-18T15:54:59;10.47;;;5.10;;
5217;SDS011;26539;51.064;6.346;2022-08-18T15:57:25;7.20;;;5.43;;
5217;SDS011;26539;51.064;6.346;2022-08-18T15:59:52;10.67;;;4.20;;
5217;SDS011;26539;51.064;6.346;2022-08-18T16:02:19;7.00;;;5.00;;
5217;SDS011;26539;51.064;6.346;2022-08-18T16:04:45;4.60;;;4.20;;
5217;SDS011;26539;51.064;6.346;2022-08-18T16:07:11;6.03;;;5.30;;
5217;SDS011;26539;51.064;6.346;2022-08-18T16:09:40;7.13;;;4.80;;
5217;SDS011;26539;51.064;6.346;2022-08-18T16:14:42;7.20;;;5.10;;
5217;SDS011;26539;51.064;6.346;2022-08-18T16:17:08;7.23;;;5.07;;
5217;SDS011;26539;51.064;6.346;2022-08-18T16:19:34;4.70;;;4.30;;
5217;SDS011;26539;51.064;6.346;2022-08-18T16:21:59;6.80;;;5.40;;
5217;SDS011;26539;51.064;6.346;2022-08-18T16:24:30;6.00;;;5.40;;
5217;SDS011;26539;51.064;6.346;2022-08-18T16:26:56;6.07;;;4.80;;
5217;SDS011;26539;51.064;6.346;2022-08-18T16:29:21;11.50;;;5.03;;
5217;SDS011;26539;51.064;6.346;2022-08-18T16:31:47;5.43;;;5.00;;
5217;SDS011;26539;51.064;6.346;2022-08-18T16:34:15;5.60;;;5.10;;
5217;SDS011;26539;51.064;6.346;2022-08-18T16:36:47;5.57;;;5.00;;
5217;SDS011;26539;51.064;6.346;2022-08-18T16:39:13;6.97;;;4.80;;
5217;SDS011;26539;51.064;6.346;2022-08-18T16:41:38;6.53;;;5.90;;
5217;SDS011;26539;51.064;6.346;2022-08-18T16:44:07;7.03;;;4.90;;
5217;SDS011;26539;51.064;6.346;2022-08-18T16:46:35;7.70;;;5.37;;
5217;SDS011;26539;51.064;6.346;2022-08-18T16:49:00;5.90;;;5.30;;
5217;SDS011;26539;51.064;6.346;2022-08-18T16:51:30;5.77;;;5.27;;
5217;SDS011;26539;51.064;6.346;2022-08-18T16:53:55;5.30;;;4.90;;
5217;SDS011;26539;51.064;6.346;2022-08-18T16:56:24;6.47;;;5.90;;
5217;SDS011;26539;51.064;6.346;2022-08-18T16:58:51;7.17;;;5.40;;
5217;SDS011;26539;51.064;6.346;2022-08-18T17:01:36;10.23;;;5.23;;
5217;SDS011;26539;51.064;6.346;2022-08-18T17:04:24;8.73;;;5.33;;
5217;SDS011;26539;51.064;6.346;2022-08-18T17:06:52;5.90;;;5.20;;
5217;SDS011;26539;51.064;6.346;2022-08-18T17:09:18;6.13;;;4.80;;
5217;SDS011;26539;51.064;6.346;2022-08-18T17:11:48;5.93;;;5.30;;
5217;SDS011;26539;51.064;6.346;2022-08-18T17:14:15;7.33;;;6.33;;
5217;SDS011;26539;51.064;6.346;2022-08-18T17:16:43;7.67;;;6.20;;
5217;SDS011;26539;51.064;6.346;2022-08-18T17:19:10;9.30;;;6.73;;
5217;SDS011;26539;51.064;6.346;2022-08-18T17:21:36;7.03;;;6.53;;
5217;SDS011;26539;51.064;6.346;2022-08-18T17:24:05;6.73;;;6.03;;
5217;SDS011;26539;51.064;6.346;2022-08-18T17:29:27;8.93;;;6.00;;
5217;SDS011;26539;51.064;6.346;2022-08-18T17:32:03;6.50;;;5.90;;
5217;SDS011;26539;51.064;6.346;2022-08-18T17:34:34;7.20;;;6.10;;
5217;SDS011;26539;51.064;6.346;2022-08-18T17:37:01;6.97;;;5.47;;
5217;SDS011;26539;51.064;6.346;2022-08-18T17:39:32;6.20;;;5.60;;
5217;SDS011;26539;51.064;6.346;2022-08-18T17:42:01;6.53;;;5.93;;
5217;SDS011;26539;51.064;6.346;2022-08-18T17:44:54;6.83;;;5.37;;
5217;SDS011;26539;51.064;6.346;2022-08-18T17:47:59;5.93;;;5.40;;
5217;SDS011;26539;51.064;6.346;2022-08-18T17:50:37;6.80;;;5.37;;
5217;SDS011;26539;51.064;6.346;2022-08-18T17:53:32;7.83;;;5.63;;
5217;SDS011;26539;51.064;6.346;2022-08-18T17:56:01;10.20;;;6.13;;